createdAt,value
2018-07-06T00:00:54.759Z,942.49
2018-07-06T00:02:02.810Z,942.52
2018-07-06T00:03:10.990Z,942.48
2018-07-06T00:04:18.961Z,942.47
2018-07-06T00:05:27.023Z,942.49
2018-07-06T00:06:35.080Z,942.47
2018-07-06T00:07:43.150Z,942.48
2018-07-06T00:08:51.252Z,942.48
2018-07-06T00:09:59.261Z,942.47
2018-07-06T00:11:07.493Z,942.48
2018-07-06T00:12:15.441Z,942.52
2018-07-06T00:13:23.491Z,942.50
2018-07-06T00:14:31.633Z,942.47
2018-07-06T00:15:39.583Z,942.50
2018-07-06T00:16:47.658Z,942.47
2018-07-06T00:17:55.716Z,942.50
2018-07-06T00:19:03.758Z,942.47
2018-07-06T00:20:11.886Z,942.45
2018-07-06T00:21:19.937Z,942.48
2018-07-06T00:22:27.979Z,942.49
2018-07-06T00:23:36.049Z,942.46
2018-07-06T00:24:44.110Z,942.48
2018-07-06T00:25:52.298Z,942.48
2018-07-06T00:27:00.254Z,942.46
2018-07-06T00:28:08.358Z,942.43
2018-07-06T00:29:16.383Z,942.48
2018-07-06T00:30:24.442Z,942.48
2018-07-06T00:31:32.568Z,942.47
2018-07-06T00:32:40.612Z,942.47
2018-07-06T00:33:48.645Z,942.44
2018-07-06T00:34:56.776Z,942.45
2018-07-06T00:36:04.793Z,942.47
2018-07-06T00:37:12.959Z,942.48
2018-07-06T00:38:20.908Z,942.49
2018-07-06T00:39:28.988Z,942.45
2018-07-06T00:40:37.041Z,942.45
2018-07-06T00:41:45.123Z,942.41
2018-07-06T00:42:53.235Z,942.41
2018-07-06T00:44:01.239Z,942.48
2018-07-06T00:45:09.316Z,942.46
2018-07-06T00:46:17.388Z,942.46
2018-07-06T00:47:25.445Z,942.46
2018-07-06T00:48:33.488Z,942.45
2018-07-06T00:49:41.705Z,942.48
2018-07-06T00:50:49.638Z,942.51
2018-07-06T00:51:57.703Z,942.50
2018-07-06T00:53:05.878Z,942.46
2018-07-06T00:54:13.837Z,942.52
2018-07-06T00:55:21.898Z,942.55
2018-07-06T00:56:29.965Z,942.52
2018-07-06T00:57:38.139Z,942.51
2018-07-06T00:58:46.156Z,942.52
2018-07-06T00:59:54.152Z,942.51
2018-07-06T01:01:02.242Z,942.49
2018-07-06T01:02:10.304Z,942.52
2018-07-06T01:03:18.366Z,942.50
2018-07-06T01:04:26.485Z,942.50
2018-07-06T01:05:34.494Z,942.45
2018-07-06T01:06:42.555Z,942.46
2018-07-06T01:07:50.651Z,942.53
2018-07-06T01:08:58.707Z,942.48
2018-07-06T01:10:06.897Z,942.48
2018-07-06T01:11:14.838Z,942.51
2018-07-06T01:12:22.902Z,942.44
2018-07-06T01:13:31.018Z,942.47
2018-07-06T01:14:39.047Z,942.48
2018-07-06T01:15:47.485Z,942.47
2018-07-06T01:16:55.158Z,942.48
2018-07-06T01:18:03.232Z,942.47
2018-07-06T01:19:11.295Z,942.43
2018-07-06T01:20:19.373Z,942.46
2018-07-06T01:21:27.495Z,942.48
2018-07-06T01:22:35.505Z,942.50
2018-07-06T01:23:43.547Z,942.49
2018-07-06T01:24:51.650Z,942.49
2018-07-06T01:25:59.722Z,942.53
2018-07-06T01:27:07.893Z,942.53
2018-07-06T01:28:15.859Z,942.42
2018-07-06T01:29:24.017Z,942.42
2018-07-06T01:30:31.992Z,942.37
2018-07-06T01:31:40.039Z,942.37
2018-07-06T01:32:48.164Z,942.39
2018-07-06T01:33:56.170Z,942.38
2018-07-06T01:35:04.230Z,942.40
2018-07-06T01:36:12.315Z,942.38
2018-07-06T01:37:20.375Z,942.40
2018-07-06T01:38:28.447Z,942.39
2018-07-06T01:39:36.503Z,942.39
2018-07-06T01:40:44.611Z,942.42
2018-07-06T01:41:52.632Z,942.39
2018-07-06T01:43:00.745Z,942.39
2018-07-06T01:44:08.752Z,942.40
2018-07-06T01:45:16.887Z,942.37
2018-07-06T01:46:24.906Z,942.39
2018-07-06T01:47:33.019Z,942.38
2018-07-06T01:48:41.045Z,942.39
2018-07-06T01:49:49.143Z,942.34
2018-07-06T01:50:57.172Z,942.33
2018-07-06T01:52:05.252Z,942.36
2018-07-06T01:53:13.336Z,942.39
2018-07-06T01:54:21.416Z,942.36
2018-07-06T01:55:29.433Z,942.35
2018-07-06T01:56:37.496Z,942.31
2018-07-06T01:57:45.670Z,942.36
2018-07-06T01:58:53.608Z,942.35
2018-07-06T02:00:01.701Z,942.35
2018-07-06T02:01:09.805Z,942.36
2018-07-06T02:02:17.817Z,942.33
2018-07-06T02:03:25.946Z,942.37
2018-07-06T02:04:33.939Z,942.35
2018-07-06T02:05:42.018Z,942.34
2018-07-06T02:06:50.120Z,942.34
2018-07-06T02:07:58.159Z,942.38
2018-07-06T02:09:06.353Z,942.35
2018-07-06T02:10:14.269Z,942.39
2018-07-06T02:11:22.349Z,942.40
2018-07-06T02:12:30.403Z,942.40
2018-07-06T02:13:38.480Z,942.40
2018-07-06T02:14:46.660Z,942.41
2018-07-06T02:15:54.616Z,942.42
2018-07-06T02:17:02.719Z,942.40
2018-07-06T02:18:10.736Z,942.39
2018-07-06T02:19:18.802Z,942.41
2018-07-06T02:20:26.913Z,942.38
2018-07-06T02:21:34.937Z,942.37
2018-07-06T02:22:42.998Z,942.37
2018-07-06T02:23:51.074Z,942.36
2018-07-06T02:24:59.138Z,942.38
2018-07-06T02:26:07.321Z,942.38
2018-07-06T02:27:15.269Z,942.38
2018-07-06T02:28:23.330Z,942.38
2018-07-06T02:29:31.398Z,942.38
2018-07-06T02:30:39.477Z,942.39
2018-07-06T02:31:47.579Z,942.36
2018-07-06T02:32:55.648Z,942.41
2018-07-06T02:34:03.665Z,942.40
2018-07-06T02:35:11.732Z,942.44
2018-07-06T02:36:19.784Z,942.43
2018-07-06T02:37:27.923Z,942.42
2018-07-06T02:38:35.926Z,942.45
2018-07-06T02:39:43.986Z,942.44
2018-07-06T02:40:52.093Z,942.46
2018-07-06T02:42:00.137Z,942.44
2018-07-06T02:43:08.250Z,942.40
2018-07-06T02:44:16.250Z,942.41
2018-07-06T02:45:24.318Z,942.37
2018-07-06T02:46:32.388Z,942.38
2018-07-06T02:47:40.567Z,942.41
2018-07-06T02:48:48.525Z,942.42
2018-07-06T02:49:56.595Z,942.42
2018-07-06T02:51:04.653Z,942.45
2018-07-06T02:52:12.725Z,942.40
2018-07-06T02:53:20.987Z,942.45
2018-07-06T02:54:28.852Z,942.44
2018-07-06T02:55:36.923Z,942.44
2018-07-06T02:56:44.987Z,942.44
2018-07-06T02:57:53.061Z,942.46
2018-07-06T02:59:01.226Z,942.46
2018-07-06T03:00:09.184Z,942.47
2018-07-06T03:01:17.248Z,942.47
2018-07-06T03:02:25.322Z,942.48
2018-07-06T03:03:33.375Z,942.46
2018-07-06T03:04:41.570Z,942.45
2018-07-06T03:05:49.514Z,942.48
2018-07-06T03:06:57.593Z,942.49
2018-07-06T03:08:05.671Z,942.47
2018-07-06T03:09:13.693Z,942.50
2018-07-06T03:10:21.831Z,942.47
2018-07-06T03:11:29.846Z,942.48
2018-07-06T03:12:37.925Z,942.48
2018-07-06T03:13:45.979Z,942.49
2018-07-06T03:14:54.016Z,942.49
2018-07-06T03:16:02.227Z,942.47
2018-07-06T03:17:10.175Z,942.43
2018-07-06T03:18:18.290Z,942.46
2018-07-06T03:19:26.351Z,942.45
2018-07-06T03:20:34.378Z,942.44
2018-07-06T03:21:42.495Z,942.48
2018-07-06T03:22:50.511Z,942.46
2018-07-06T03:23:58.574Z,942.43
2018-07-06T03:25:06.654Z,942.45
2018-07-06T03:26:14.712Z,942.45
2018-07-06T03:27:22.888Z,942.44
2018-07-06T03:28:31.022Z,942.48
2018-07-06T03:29:38.911Z,942.48
2018-07-06T03:30:46.994Z,942.44
2018-07-06T03:31:55.049Z,942.45
2018-07-06T03:33:03.167Z,942.48
2018-07-06T03:34:11.190Z,942.46
2018-07-06T03:35:19.248Z,942.49
2018-07-06T03:36:27.321Z,942.46
2018-07-06T03:37:35.430Z,942.49
2018-07-06T03:38:43.416Z,942.51
2018-07-06T03:39:51.524Z,942.47
2018-07-06T03:40:59.562Z,942.45
2018-07-06T03:42:07.655Z,942.49
2018-07-06T03:43:15.745Z,942.46
2018-07-06T03:44:23.749Z,942.52
2018-07-06T03:45:31.841Z,942.52
2018-07-06T03:46:39.905Z,942.53
2018-07-06T03:47:47.978Z,942.48
2018-07-06T03:48:56.155Z,942.51
2018-07-06T03:50:04.091Z,942.48
2018-07-06T03:51:12.172Z,942.47
2018-07-06T03:52:20.271Z,942.49
2018-07-06T03:53:28.318Z,942.44
2018-07-06T03:54:36.489Z,942.45
2018-07-06T03:55:44.438Z,942.48
2018-07-06T03:56:52.514Z,942.48
2018-07-06T03:58:00.774Z,942.46
2018-07-06T03:59:08.848Z,942.46
2018-07-06T04:00:16.961Z,942.47
2018-07-06T04:01:25.163Z,942.49
2018-07-06T04:02:33.048Z,942.50
2018-07-06T04:03:41.113Z,942.51
2018-07-06T04:04:49.297Z,942.51
2018-07-06T04:05:57.366Z,942.50
2018-07-06T04:07:05.312Z,942.54
2018-07-06T04:08:13.365Z,942.53
2018-07-06T04:09:21.491Z,942.54
2018-07-06T04:10:29.515Z,942.59
2018-07-06T04:11:37.634Z,942.56
2018-07-06T04:12:45.697Z,942.60
2018-07-06T04:13:53.691Z,942.59
2018-07-06T04:15:01.784Z,942.62
2018-07-06T04:16:09.895Z,942.65
2018-07-06T04:17:18.031Z,942.62
2018-07-06T04:18:25.970Z,942.63
2018-07-06T04:19:34.045Z,942.66
2018-07-06T04:20:42.259Z,942.64
2018-07-06T04:21:50.168Z,942.65
2018-07-06T04:22:58.301Z,942.68
2018-07-06T04:24:06.298Z,942.65
2018-07-06T04:25:14.375Z,942.65
2018-07-06T04:26:22.477Z,942.68
2018-07-06T04:27:30.575Z,942.67
2018-07-06T04:28:38.570Z,942.68
2018-07-06T04:29:46.640Z,942.71
2018-07-06T04:30:54.721Z,942.69
2018-07-06T04:32:02.772Z,942.73
2018-07-06T04:33:10.890Z,942.75
2018-07-06T04:34:18.916Z,942.75
2018-07-06T04:35:26.982Z,942.75
2018-07-06T04:36:35.166Z,942.76
2018-07-06T04:37:43.117Z,942.75
2018-07-06T04:38:51.243Z,942.76
2018-07-06T04:39:59.271Z,942.81
2018-07-06T04:41:07.328Z,942.80
2018-07-06T04:42:15.389Z,942.80
2018-07-06T04:43:23.427Z,942.80
2018-07-06T04:44:31.633Z,942.79
2018-07-06T04:45:39.589Z,942.83
2018-07-06T04:46:47.654Z,942.83
2018-07-06T04:47:55.718Z,942.83
2018-07-06T04:49:03.779Z,942.85
2018-07-06T04:50:11.908Z,942.91
2018-07-06T04:51:19.928Z,942.88
2018-07-06T04:52:28.027Z,942.87
2018-07-06T04:53:36.054Z,942.89
2018-07-06T04:54:44.102Z,942.89
2018-07-06T04:55:52.304Z,942.87
2018-07-06T04:57:00.261Z,942.90
2018-07-06T04:58:08.323Z,942.89
2018-07-06T04:59:16.424Z,942.89
2018-07-06T05:00:24.458Z,942.92
2018-07-06T05:01:32.641Z,942.92
2018-07-06T05:02:40.727Z,942.93
2018-07-06T05:03:48.663Z,942.95
2018-07-06T05:04:56.889Z,942.96
2018-07-06T05:06:04.822Z,942.97
2018-07-06T05:07:12.955Z,943.02
2018-07-06T05:08:21.492Z,943.04
2018-07-06T05:09:29.021Z,943.04
2018-07-06T05:10:37.082Z,943.06
2018-07-06T05:11:45.986Z,943.05
2018-07-06T05:12:53.248Z,943.03
2018-07-06T05:14:01.943Z,943.05
2018-07-06T05:15:09.760Z,943.07
2018-07-06T05:16:17.853Z,943.06
2018-07-06T05:17:30.525Z,943.07
2018-07-06T05:18:33.573Z,943.09
2018-07-06T05:19:41.629Z,943.12
2018-07-06T05:20:49.690Z,943.09
2018-07-06T05:21:57.755Z,943.11
2018-07-06T05:23:05.933Z,943.15
2018-07-06T05:25:30.862Z,943.10
2018-07-06T05:26:38.904Z,943.10
2018-07-06T05:27:46.960Z,943.14
2018-07-06T05:28:55.808Z,943.17
2018-07-06T05:30:03.127Z,943.13
2018-07-06T05:31:11.171Z,943.13
2018-07-06T05:32:19.245Z,943.16
2018-07-06T05:33:27.334Z,943.18
2018-07-06T05:34:35.541Z,943.18
2018-07-06T05:35:43.529Z,943.17
2018-07-06T05:36:51.563Z,943.14
2018-07-06T05:37:59.630Z,943.16
2018-07-06T05:39:07.641Z,943.17
2018-07-06T05:40:16.548Z,943.17
2018-07-06T05:41:24.358Z,943.15
2018-07-06T05:42:31.956Z,943.17
2018-07-06T05:43:39.927Z,943.21
2018-07-06T05:44:47.991Z,943.19
2018-07-06T05:45:56.106Z,943.23
2018-07-06T05:47:04.114Z,943.22
2018-07-06T05:48:12.188Z,943.23
2018-07-06T05:49:20.248Z,943.24
2018-07-06T05:50:28.328Z,943.26
2018-07-06T05:51:36.495Z,943.33
2018-07-06T05:52:44.456Z,943.29
2018-07-06T05:53:52.691Z,943.26
2018-07-06T05:55:00.574Z,943.26
2018-07-06T05:56:08.632Z,943.23
2018-07-06T05:57:16.816Z,943.30
2018-07-06T05:58:24.764Z,943.31
2018-07-06T05:59:32.845Z,943.31
2018-07-06T06:00:40.922Z,943.31
2018-07-06T06:01:48.986Z,943.30
2018-07-06T06:02:57.090Z,943.30
2018-07-06T06:04:05.145Z,943.35
2018-07-06T06:05:13.181Z,943.36
2018-07-06T06:06:21.260Z,943.36
2018-07-06T06:07:29.382Z,943.40
2018-07-06T06:08:38.427Z,943.39
2018-07-06T06:09:45.570Z,943.39
2018-07-06T06:10:53.511Z,943.42
2018-07-06T06:12:01.599Z,943.44
2018-07-06T06:13:09.707Z,943.42
2018-07-06T06:14:17.726Z,943.43
2018-07-06T06:15:25.782Z,943.43
2018-07-06T06:16:33.869Z,943.45
2018-07-06T06:17:42.006Z,943.47
2018-07-06T06:18:50.052Z,943.42
2018-07-06T06:19:58.061Z,943.51
2018-07-06T06:21:06.137Z,943.48
2018-07-06T06:22:14.176Z,943.50
2018-07-06T06:23:22.327Z,943.54
2018-07-06T06:24:30.331Z,943.57
2018-07-06T06:25:38.516Z,943.59
2018-07-06T06:26:46.476Z,943.56
2018-07-06T06:27:54.626Z,943.58
2018-07-06T06:29:02.605Z,943.58
2018-07-06T06:30:10.673Z,943.60
2018-07-06T06:31:18.757Z,943.59
2018-07-06T06:32:26.809Z,943.63
2018-07-06T06:33:34.895Z,943.60
2018-07-06T06:34:42.957Z,943.62
2018-07-06T06:35:51.017Z,943.63
2018-07-06T06:36:59.083Z,943.62
2018-07-06T06:38:07.268Z,943.67
2018-07-06T06:39:15.238Z,943.67
2018-07-06T06:40:23.289Z,943.68
2018-07-06T06:41:31.471Z,943.67
2018-07-06T06:42:39.423Z,943.68
2018-07-06T06:43:47.601Z,943.72
2018-07-06T06:44:55.573Z,943.68
2018-07-06T06:46:03.612Z,943.68
2018-07-06T06:47:11.697Z,943.68
2018-07-06T06:48:19.759Z,943.69
2018-07-06T06:49:27.958Z,943.70
2018-07-06T06:50:35.895Z,943.72
2018-07-06T06:51:43.952Z,943.68
2018-07-06T06:52:52.053Z,943.72
2018-07-06T06:54:00.122Z,943.76
2018-07-06T06:55:08.474Z,943.77
2018-07-06T06:56:16.256Z,943.76
2018-07-06T06:57:24.445Z,943.84
2018-07-06T06:58:32.398Z,943.82
2018-07-06T06:59:40.464Z,943.78
2018-07-06T07:00:48.645Z,943.81
2018-07-06T07:01:56.591Z,943.82
2018-07-06T07:03:04.651Z,943.80
2018-07-06T07:04:12.741Z,943.85
2018-07-06T07:05:20.787Z,943.84
2018-07-06T07:06:28.989Z,943.86
2018-07-06T07:07:37.132Z,943.84
2018-07-06T07:08:45.259Z,943.91
2018-07-06T07:09:53.085Z,943.92
2018-07-06T07:11:01.150Z,943.89
2018-07-06T07:12:09.327Z,943.89
2018-07-06T07:13:17.542Z,943.92
2018-07-06T07:14:25.556Z,943.90
2018-07-06T07:15:33.620Z,943.91
2018-07-06T07:16:41.685Z,943.91
2018-07-06T07:17:51.973Z,943.90
2018-07-06T07:19:00.035Z,943.89
2018-07-06T07:20:08.124Z,943.91
2018-07-06T07:21:16.183Z,943.90
2018-07-06T07:22:24.355Z,943.96
2018-07-06T07:23:32.316Z,943.94
2018-07-06T07:24:40.386Z,943.94
2018-07-06T07:25:48.472Z,943.97
2018-07-06T07:26:56.525Z,943.98
2018-07-06T07:28:04.644Z,944.01
2018-07-06T07:29:12.658Z,943.99
2018-07-06T07:30:20.734Z,943.99
2018-07-06T07:31:28.800Z,944.03
2018-07-06T07:32:36.901Z,944.03
2018-07-06T07:33:44.940Z,944.01
2018-07-06T07:34:53.974Z,943.98
2018-07-06T07:36:02.088Z,943.97
2018-07-06T07:37:10.159Z,943.94
2018-07-06T07:38:18.278Z,943.94
2018-07-06T07:39:26.278Z,943.93
2018-07-06T07:40:34.330Z,943.96
2018-07-06T07:41:42.423Z,943.98
2018-07-06T07:42:50.528Z,943.95
2018-07-06T07:43:58.667Z,944.01
2018-07-06T07:45:06.630Z,943.98
2018-07-06T07:46:14.714Z,944.01
2018-07-06T07:47:22.775Z,944.00
2018-07-06T07:48:30.832Z,944.00
2018-07-06T07:49:38.944Z,944.03
2018-07-06T07:50:46.990Z,944.05
2018-07-06T07:51:55.047Z,944.08
2018-07-06T07:53:03.131Z,944.10
2018-07-06T07:55:21.988Z,944.16
2018-07-06T07:56:29.940Z,944.20
2018-07-06T07:57:38.045Z,944.23
2018-07-06T07:58:46.075Z,944.28
2018-07-06T07:59:54.121Z,944.28
2018-07-06T08:01:02.500Z,944.26
2018-07-06T08:02:10.287Z,944.25
2018-07-06T08:03:18.354Z,944.27
2018-07-06T08:04:26.417Z,944.24
2018-07-06T08:05:34.489Z,944.27
2018-07-06T08:06:42.720Z,944.23
2018-07-06T08:07:50.624Z,944.24
2018-07-06T08:08:58.712Z,944.23
2018-07-06T08:10:06.765Z,944.25
2018-07-06T08:11:14.846Z,944.26
2018-07-06T08:12:23.021Z,944.21
2018-07-06T08:13:30.999Z,944.17
2018-07-06T08:14:39.257Z,944.18
2018-07-06T08:15:47.329Z,944.19
2018-07-06T08:16:55.781Z,944.17
2018-07-06T08:18:03.500Z,944.17
2018-07-06T08:19:11.550Z,944.18
2018-07-06T08:20:19.623Z,944.21
2018-07-06T08:21:27.723Z,944.20
2018-07-06T08:22:35.796Z,944.18
2018-07-06T08:23:43.811Z,944.19
2018-07-06T08:24:51.886Z,944.20
2018-07-06T08:25:59.967Z,944.16
2018-07-06T08:27:08.025Z,944.19
2018-07-06T08:28:16.209Z,944.21
2018-07-06T08:29:24.149Z,944.24
2018-07-06T08:30:32.259Z,944.25
2018-07-06T08:31:40.474Z,944.27
2018-07-06T08:32:48.373Z,944.25
2018-07-06T08:33:56.567Z,944.26
2018-07-06T08:35:04.519Z,944.26
2018-07-06T08:36:12.581Z,944.30
2018-07-06T08:37:20.654Z,944.35
2018-07-06T08:38:28.736Z,944.33
2018-07-06T08:39:36.980Z,944.41
2018-07-06T08:40:44.871Z,944.39
2018-07-06T08:41:52.941Z,944.41
2018-07-06T08:43:01.014Z,944.41
2018-07-06T08:44:09.201Z,944.44
2018-07-06T08:45:17.249Z,944.48
2018-07-06T08:46:25.230Z,944.45
2018-07-06T08:47:33.280Z,944.49
2018-07-06T08:48:41.355Z,944.50
2018-07-06T08:49:49.436Z,944.57
2018-07-06T08:50:57.620Z,944.51
2018-07-06T08:52:05.565Z,944.55
2018-07-06T08:53:13.627Z,944.57
2018-07-06T08:54:21.755Z,944.63
2018-07-06T08:55:29.797Z,944.70
2018-07-06T08:56:37.983Z,944.78
2018-07-06T08:57:45.926Z,944.80
2018-07-06T08:58:53.981Z,944.82
2018-07-06T09:00:02.190Z,945.27
2018-07-06T09:01:10.154Z,944.99
2018-07-06T09:02:18.341Z,944.87
2018-07-06T09:03:26.289Z,945.02
2018-07-06T09:04:34.452Z,944.75
2018-07-06T09:05:42.433Z,944.54
2018-07-06T09:06:50.754Z,944.49
2018-07-06T09:07:58.616Z,944.47
2018-07-06T09:09:06.641Z,944.49
2018-07-06T09:10:14.698Z,944.51
2018-07-06T09:11:22.773Z,944.49
2018-07-06T09:12:30.906Z,944.49
2018-07-06T09:13:38.928Z,944.51
2018-07-06T09:14:46.987Z,944.54
2018-07-06T09:15:55.172Z,944.49
2018-07-06T09:17:03.156Z,944.56
2018-07-06T09:18:11.325Z,944.56
2018-07-06T09:19:19.389Z,944.56
2018-07-06T09:20:27.375Z,944.62
2018-07-06T09:21:35.432Z,944.68
2018-07-06T09:22:43.544Z,944.75
2018-07-06T09:23:51.681Z,944.83
2018-07-06T09:24:59.634Z,944.75
2018-07-06T09:26:08.096Z,944.75
2018-07-06T09:27:15.801Z,944.73
2018-07-06T09:28:23.821Z,944.72
2018-07-06T09:29:31.968Z,944.72
2018-07-06T09:30:39.982Z,944.72
2018-07-06T09:31:48.187Z,944.72
2018-07-06T09:32:56.133Z,944.67
2018-07-06T09:34:04.182Z,944.69
2018-07-06T09:35:12.323Z,944.65
2018-07-06T09:36:20.372Z,944.61
2018-07-06T09:37:28.414Z,944.66
2018-07-06T09:38:36.468Z,944.73
2018-07-06T09:39:44.546Z,944.75
2018-07-06T09:40:52.734Z,944.76
2018-07-06T09:42:00.712Z,944.81
2018-07-06T09:43:08.760Z,944.80
2018-07-06T09:44:16.828Z,944.81
2018-07-06T09:45:24.910Z,944.93
2018-07-06T09:46:33.024Z,945.01
2018-07-06T09:47:41.044Z,945.04
2018-07-06T09:48:49.122Z,945.03
2018-07-06T09:49:57.182Z,945.05
2018-07-06T09:51:05.341Z,944.96
2018-07-06T09:52:13.507Z,944.83
2018-07-06T09:53:21.415Z,944.79
2018-07-06T09:54:29.469Z,944.80
2018-07-06T09:55:37.544Z,944.93
2018-07-06T09:56:45.602Z,944.89
2018-07-06T09:57:53.747Z,944.93
2018-07-06T09:59:01.876Z,945.00
2018-07-06T10:00:09.829Z,945.03
2018-07-06T10:01:17.901Z,945.07
2018-07-06T10:02:26.081Z,945.07
2018-07-06T10:03:34.012Z,945.22
2018-07-06T10:04:42.120Z,945.34
2018-07-06T10:05:50.185Z,945.36
2018-07-06T10:06:58.248Z,945.32
2018-07-06T10:08:06.358Z,945.33
2018-07-06T10:09:14.392Z,945.20
2018-07-06T10:10:22.469Z,945.17
2018-07-06T10:11:30.536Z,945.19
2018-07-06T10:12:38.796Z,945.22
2018-07-06T10:13:46.698Z,945.18
2018-07-06T10:14:54.755Z,945.14
2018-07-06T10:16:02.826Z,945.15
2018-07-06T10:17:10.899Z,945.20
2018-07-06T10:18:19.078Z,945.16
2018-07-06T10:19:27.045Z,945.20
2018-07-06T10:20:35.107Z,945.24
2018-07-06T10:21:43.267Z,945.22
2018-07-06T10:22:51.296Z,945.26
2018-07-06T10:23:59.334Z,945.28
2018-07-06T10:25:07.412Z,945.23
2018-07-06T10:26:15.475Z,945.28
2018-07-06T10:27:23.557Z,945.26
2018-07-06T10:28:31.727Z,945.33
2018-07-06T10:29:39.676Z,945.32
2018-07-06T10:30:47.748Z,945.30
2018-07-06T10:31:55.832Z,945.32
2018-07-06T10:33:03.888Z,945.32
2018-07-06T10:34:12.069Z,945.31
2018-07-06T10:35:20.034Z,945.38
2018-07-06T10:36:28.102Z,945.39
2018-07-06T10:37:36.290Z,945.37
2018-07-06T10:38:44.243Z,945.40
2018-07-06T10:39:52.636Z,945.40
2018-07-06T10:41:00.396Z,945.50
2018-07-06T10:42:08.463Z,945.53
2018-07-06T10:43:18.147Z,945.55
2018-07-06T10:44:26.211Z,945.58
2018-07-06T10:45:34.386Z,945.56
2018-07-06T10:46:42.393Z,945.53
2018-07-06T10:47:50.418Z,945.55
2018-07-06T10:48:58.504Z,945.56
2018-07-06T10:50:06.569Z,945.54
2018-07-06T10:51:14.763Z,945.55
2018-07-06T10:52:22.729Z,945.48
2018-07-06T10:53:30.906Z,945.47
2018-07-06T10:54:38.867Z,945.37
2018-07-06T10:55:46.928Z,945.45
2018-07-06T10:56:55.042Z,945.40
2018-07-06T10:58:03.076Z,945.43
2018-07-06T10:59:11.139Z,945.42
2018-07-06T11:00:19.213Z,945.45
2018-07-06T11:01:27.296Z,945.45
2018-07-06T11:02:35.399Z,945.40
2018-07-06T11:03:43.411Z,945.37
2018-07-06T11:04:51.503Z,945.36
2018-07-06T11:05:59.572Z,945.35
2018-07-06T11:07:07.646Z,945.40
2018-07-06T11:08:15.854Z,945.37
2018-07-06T11:09:23.813Z,945.41
2018-07-06T11:10:31.865Z,945.37
2018-07-06T11:11:39.959Z,945.43
2018-07-06T11:12:48.043Z,945.43
2018-07-06T11:13:56.205Z,945.43
2018-07-06T11:15:04.126Z,945.41
2018-07-06T11:16:12.203Z,945.41
2018-07-06T11:17:20.285Z,945.38
2018-07-06T11:18:28.367Z,945.40
2018-07-06T11:19:36.469Z,945.39
2018-07-06T11:20:44.507Z,945.39
2018-07-06T11:21:52.587Z,945.43
2018-07-06T11:23:00.660Z,945.45
2018-07-06T11:24:08.731Z,945.45
2018-07-06T11:25:16.920Z,945.48
2018-07-06T11:26:24.885Z,945.49
2018-07-06T11:27:32.969Z,945.43
2018-07-06T11:28:41.009Z,945.44
2018-07-06T11:29:49.079Z,945.47
2018-07-06T11:30:57.259Z,945.47
2018-07-06T11:32:05.283Z,945.45
2018-07-06T11:33:13.298Z,945.43
2018-07-06T11:34:21.364Z,945.43
2018-07-06T11:35:29.431Z,945.48
2018-07-06T11:36:37.618Z,945.47
2018-07-06T11:37:45.582Z,945.51
2018-07-06T11:38:53.611Z,945.50
2018-07-06T11:40:01.724Z,945.49
2018-07-06T11:41:09.800Z,945.54
2018-07-06T11:42:17.979Z,945.51
2018-07-06T11:43:25.969Z,945.54
2018-07-06T11:44:33.992Z,945.57
2018-07-06T11:45:42.070Z,945.60
2018-07-06T11:46:50.236Z,945.63
2018-07-06T11:47:58.308Z,945.61
2018-07-06T11:49:06.280Z,945.62
2018-07-06T11:50:14.397Z,945.59
2018-07-06T11:51:22.431Z,945.60
2018-07-06T11:52:30.623Z,945.62
2018-07-06T11:53:38.578Z,945.65
2018-07-06T11:54:46.654Z,945.65
2018-07-06T11:55:54.725Z,945.67
2018-07-06T11:57:02.781Z,945.69
2018-07-06T11:58:10.990Z,945.71
2018-07-06T11:59:18.939Z,945.67
2018-07-06T12:00:26.985Z,945.71
2018-07-06T12:01:35.079Z,945.69
2018-07-06T12:02:43.149Z,945.72
2018-07-06T12:03:51.335Z,945.73
2018-07-06T12:04:59.288Z,945.71
2018-07-06T12:06:07.357Z,945.75
2018-07-06T12:07:15.432Z,945.74
2018-07-06T12:08:23.499Z,945.77
2018-07-06T12:09:31.699Z,945.77
2018-07-06T12:10:39.654Z,945.77
2018-07-06T12:11:47.724Z,945.79
2018-07-06T12:12:55.790Z,945.83
2018-07-06T12:14:03.945Z,945.82
2018-07-06T12:15:12.032Z,945.83
2018-07-06T12:16:19.991Z,945.85
2018-07-06T12:17:28.080Z,945.86
2018-07-06T12:19:46.848Z,945.87
2018-07-06T12:20:55.383Z,945.88
2018-07-06T12:22:02.986Z,945.84
2018-07-06T12:23:11.066Z,945.78
2018-07-06T12:24:19.143Z,945.77
2018-07-06T12:25:27.188Z,945.71
2018-07-06T12:26:35.419Z,945.73
2018-07-06T12:27:43.328Z,945.71
2018-07-06T12:28:51.419Z,945.73
2018-07-06T12:29:59.602Z,945.71
2018-07-06T12:31:07.570Z,945.68
2018-07-06T12:32:15.747Z,945.66
2018-07-06T12:33:23.696Z,945.68
2018-07-06T12:34:31.764Z,945.66
2018-07-06T12:35:39.861Z,945.74
2018-07-06T12:36:47.916Z,945.77
2018-07-06T12:37:56.052Z,945.79
2018-07-06T12:39:04.147Z,945.84
2018-07-06T12:40:12.154Z,945.87
2018-07-06T12:41:20.270Z,945.98
2018-07-06T12:42:28.325Z,946.09
2018-07-06T12:43:36.378Z,946.14
2018-07-06T12:44:44.436Z,946.09
2018-07-06T12:45:52.557Z,946.09
2018-07-06T12:47:01.984Z,946.06
2018-07-06T12:48:10.101Z,945.99
2018-07-06T12:49:18.132Z,945.94
2018-07-06T12:50:26.203Z,945.97
2018-07-06T12:51:34.266Z,945.94
2018-07-06T12:52:42.391Z,945.88
2018-07-06T12:53:50.428Z,945.86
2018-07-06T12:54:58.497Z,945.88
2018-07-06T12:56:06.576Z,945.79
2018-07-06T12:57:14.644Z,945.77
2018-07-06T12:58:22.877Z,945.83
2018-07-06T12:59:30.788Z,945.78
2018-07-06T13:00:38.866Z,945.77
2018-07-06T13:01:47.048Z,945.77
2018-07-06T13:02:55.022Z,945.79
2018-07-06T13:04:03.214Z,945.80
2018-07-06T13:05:11.173Z,945.87
2018-07-06T13:06:19.258Z,945.86
2018-07-06T13:07:27.326Z,945.88
2018-07-06T13:08:35.423Z,945.98
2018-07-06T13:09:43.547Z,945.94
2018-07-06T13:10:51.535Z,945.94
2018-07-06T13:11:59.615Z,945.94
2018-07-06T13:13:07.695Z,945.89
2018-07-06T13:14:15.754Z,945.85
2018-07-06T13:15:23.930Z,945.77
2018-07-06T13:16:31.890Z,945.78
2018-07-06T13:17:40.023Z,945.77
2018-07-06T13:18:48.063Z,945.85
2018-07-06T13:19:56.216Z,945.87
2018-07-06T13:21:04.422Z,945.82
2018-07-06T13:22:12.286Z,945.79
2018-07-06T13:23:20.359Z,945.77
2018-07-06T13:24:28.428Z,945.77
2018-07-06T13:25:36.497Z,945.77
2018-07-06T13:26:44.685Z,945.77
2018-07-06T13:27:52.656Z,945.84
2018-07-06T13:29:00.726Z,945.91
2018-07-06T13:30:08.808Z,945.91
2018-07-06T13:31:16.875Z,945.93
2018-07-06T13:32:25.060Z,945.87
2018-07-06T13:33:33.047Z,945.85
2018-07-06T13:34:41.114Z,945.83
2018-07-06T13:35:49.186Z,945.82
2018-07-06T13:36:57.252Z,945.85
2018-07-06T13:38:05.396Z,945.81
2018-07-06T13:39:13.544Z,945.74
2018-07-06T13:40:21.479Z,945.70
2018-07-06T13:41:29.570Z,945.69
2018-07-06T13:42:37.674Z,945.70
2018-07-06T13:43:45.726Z,945.67
2018-07-06T13:44:53.761Z,945.71
2018-07-06T13:46:01.862Z,945.70
2018-07-06T13:47:09.936Z,945.76
2018-07-06T13:50:42.284Z,945.71
2018-07-06T13:51:50.281Z,945.69
2018-07-06T13:52:58.446Z,945.71
2018-07-06T13:54:06.485Z,945.75
2018-07-06T13:55:14.491Z,945.72
2018-07-06T13:56:22.585Z,945.73
2018-07-06T13:57:30.650Z,945.70
2018-07-06T13:58:38.739Z,945.70
2018-07-06T13:59:46.914Z,945.69
2018-07-06T14:00:54.865Z,945.60
2018-07-06T14:02:02.937Z,945.62
2018-07-06T14:03:11.133Z,945.56
2018-07-06T14:04:19.102Z,945.56
2018-07-06T14:05:27.278Z,945.53
2018-07-06T14:06:35.272Z,945.59
2018-07-06T14:07:43.317Z,945.60
2018-07-06T14:08:51.395Z,945.59
2018-07-06T14:09:59.462Z,945.60
2018-07-06T14:11:07.575Z,945.60
2018-07-06T14:12:15.606Z,945.59
2018-07-06T14:13:23.648Z,945.58
2018-07-06T14:14:31.736Z,945.64
2018-07-06T14:15:39.822Z,945.61